Time;durP1;ratioP1;P1;durP2;ratioP2;P2;SDS_P1;SDS_P2;PMS_P1;PMS_P2;Temp;Humidity;BMP_temperature;BMP_pressure;BME280_temperature;BME280_humidity;BME280_pressure;Samples;Min_cycle;Max_cycle;Signal;HPM_P1;HPM_P2
2023/09/11 00:01:55;;;;;;;;;;;21.50;99.90;;;;;;4995961;28;20397;-31
2023/09/11 00:04:22;;;;;;;;;;;21.50;99.90;;;;;;4979570;28;19940;-32
2023/09/11 00:06:49;;;;;;;;;;;21.50;99.90;;;;;;4996236;28;20033;-31
2023/09/11 00:09:15;;;;;;;;;;;21.40;99.90;;;;;;4996104;28;20185;-30
2023/09/11 00:11:42;;;;;;;;;;;21.40;99.90;;;;;;4977586;28;20005;-31
2023/09/11 00:14:10;;;;;;;;;;;21.40;99.90;;;;;;4979092;28;20044;-31
2023/09/11 00:16:37;;;;;;;;;;;21.40;99.90;;;;;;4979546;28;19946;-32
2023/09/11 00:19:03;;;;;;;;;;;21.40;99.90;;;;;;4979305;28;20394;-31
2023/09/11 00:21:30;;;;;;;;;;;21.40;99.90;;;;;;4995355;28;19947;-31
2023/09/11 00:23:57;;;;;;;;;;;21.30;99.90;;;;;;4996330;28;20321;-33
2023/09/11 00:26:23;;;;;;;;;;;21.30;99.90;;;;;;4995434;28;19942;-31
2023/09/11 00:28:50;;;;;;;;;;;21.30;99.90;;;;;;4996114;28;20319;-31
2023/09/11 00:31:19;;;;;;;;;;;21.30;99.90;;;;;;4995958;28;19954;-31
2023/09/11 00:33:45;;;;;;;;;;;21.20;99.90;;;;;;4996299;28;19958;-31
2023/09/11 00:36:12;;;;;;;;;;;21.20;99.90;;;;;;4978438;28;20422;-31
2023/09/11 00:38:39;;;;;;;;;;;21.20;99.90;;;;;;4995845;28;19939;-32
2023/09/11 00:41:05;;;;;;;;;;;21.20;99.90;;;;;;4994395;28;19952;-31
2023/09/11 00:43:32;;;;;;;;;;;21.20;99.90;;;;;;5005839;28;19997;-31
2023/09/11 00:45:59;;;;;;;;;;;21.10;99.90;;;;;;4995798;28;19962;-32
2023/09/11 00:48:28;;;;;;;;;;;21.10;99.90;;;;;;4984113;28;19960;-31
2023/09/11 00:50:55;;;;;;;;;;;21.10;99.90;;;;;;4978272;28;20422;-31
2023/09/11 00:53:22;;;;;;;;;;;21.10;99.90;;;;;;5000128;28;19951;-32
2023/09/11 00:55:49;;;;;;;;;;;21.10;99.90;;;;;;4998006;28;20001;-33
2023/09/11 00:58:17;;;;;;;;;;;21.00;99.90;;;;;;5015112;28;19996;-31
2023/09/11 01:00:44;;;;;;;;;;;21.00;99.90;;;;;;4990393;28;19955;-31
2023/09/11 01:03:11;;;;;;;;;;;21.00;99.90;;;;;;4992158;28;19985;-31
2023/09/11 01:05:39;;;;;;;;;;;21.00;99.90;;;;;;4994837;28;19946;-31
2023/09/11 01:08:06;;;;;;;;;;;20.90;99.90;;;;;;4977339;28;19952;-31
2023/09/11 01:10:33;;;;;;;;;;;20.90;99.90;;;;;;4995439;28;19959;-30
2023/09/11 01:13:00;;;;;;;;;;;20.90;99.90;;;;;;4976388;28;19947;-32
2023/09/11 01:15:27;;;;;;;;;;;20.90;99.90;;;;;;4977784;28;19956;-31
2023/09/11 01:17:57;;;;;;;;;;;20.90;99.90;;;;;;4994206;28;19941;-31
2023/09/11 01:20:33;;;;;;;;;;;20.80;99.90;;;;;;4977903;28;19947;-31
2023/09/11 01:23:08;;;;;;;;;;;20.80;99.90;;;;;;4994928;28;19938;-31
2023/09/11 01:25:39;;;;;;;;;;;20.80;99.90;;;;;;4977471;28;19943;-31
2023/09/11 01:28:09;;;;;;;;;;;20.80;99.90;;;;;;4995237;28;19948;-32
2023/09/11 01:30:37;;;;;;;;;;;20.80;99.90;;;;;;4992965;28;19966;-32
2023/09/11 01:33:04;;;;;;;;;;;20.80;99.90;;;;;;4977755;28;19946;-31
2023/09/11 01:35:31;;;;;;;;;;;20.70;99.90;;;;;;4994033;28;19954;-31
2023/09/11 01:37:58;;;;;;;;;;;20.70;99.90;;;;;;4977550;28;19947;-31
2023/09/11 01:40:25;;;;;;;;;;;20.70;99.90;;;;;;4994762;28;19943;-31
2023/09/11 01:42:54;;;;;;;;;;;20.70;99.90;;;;;;4976998;28;19944;-31
2023/09/11 01:45:21;;;;;;;;;;;20.70;99.90;;;;;;4977514;28;20001;-31
2023/09/11 01:47:50;;;;;;;;;;;20.60;99.90;;;;;;4994602;28;20419;-31
2023/09/11 01:50:17;;;;;;;;;;;20.60;99.90;;;;;;4994772;28;20344;-31
2023/09/11 01:52:44;;;;;;;;;;;20.60;99.90;;;;;;4993565;28;19947;-32
2023/09/11 01:55:10;;;;;;;;;;;20.60;99.90;;;;;;4976559;28;20423;-31
2023/09/11 01:57:37;;;;;;;;;;;20.60;99.90;;;;;;4977169;28;19946;-31
2023/09/11 02:00:05;;;;;;;;;;;20.60;99.90;;;;;;4976863;28;19943;-32
2023/09/11 02:02:32;;;;;;;;;;;20.60;99.90;;;;;;4994518;28;20003;-31
2023/09/11 02:05:00;;;;;;;;;;;20.50;99.90;;;;;;4993370;28;20298;-31
2023/09/11 02:07:26;;;;;;;;;;;20.50;99.90;;;;;;4976602;28;20318;-31
2023/09/11 02:09:53;;;;;;;;;;;20.50;99.90;;;;;;4992686;28;19944;-31
2023/09/11 02:12:22;;;;;;;;;;;20.50;99.90;;;;;;4994014;28;19944;-32
2023/09/11 02:14:49;;;;;;;;;;;20.40;99.90;;;;;;4993539;28;20323;-33
2023/09/11 02:17:15;;;;;;;;;;;20.50;99.90;;;;;;4992259;28;19952;-32
2023/09/11 02:19:42;;;;;;;;;;;20.40;99.90;;;;;;4973932;28;20324;-31
2023/09/11 02:22:10;;;;;;;;;;;20.40;99.90;;;;;;4994110;28;20034;-32
2023/09/11 02:24:37;;;;;;;;;;;20.40;99.90;;;;;;4989654;28;20002;-31
2023/09/11 02:27:04;;;;;;;;;;;20.40;99.90;;;;;;4974659;28;19950;-31
2023/09/11 02:29:30;;;;;;;;;;;20.40;99.90;;;;;;4992990;28;19947;-32
2023/09/11 02:31:57;;;;;;;;;;;20.40;99.90;;;;;;4988130;28;19958;-31
2023/09/11 02:34:24;;;;;;;;;;;20.40;99.90;;;;;;4974580;28;19939;-32
2023/09/11 02:36:51;;;;;;;;;;;20.40;99.90;;;;;;4992232;28;20396;-31
2023/09/11 02:39:19;;;;;;;;;;;20.40;99.90;;;;;;4967588;28;19947;-33
2023/09/11 02:41:45;;;;;;;;;;;20.30;99.90;;;;;;4994752;28;20010;-32
2023/09/11 02:44:12;;;;;;;;;;;20.30;99.90;;;;;;4975403;28;19946;-32
2023/09/11 02:46:39;;;;;;;;;;;20.30;99.90;;;;;;4992508;28;19948;-31
2023/09/11 02:49:05;;;;;;;;;;;20.30;99.90;;;;;;4987684;28;19966;-31
2023/09/11 02:51:32;;;;;;;;;;;20.30;99.90;;;;;;4987935;28;19967;-32
2023/09/11 02:53:59;;;;;;;;;;;20.30;99.90;;;;;;4992039;28;20354;-31
2023/09/11 02:56:27;;;;;;;;;;;20.20;99.90;;;;;;4975997;28;20448;-31
2023/09/11 02:58:53;;;;;;;;;;;20.20;99.90;;;;;;4991548;28;20283;-31
2023/09/11 03:01:20;;;;;;;;;;;20.20;99.90;;;;;;4988161;28;20319;-31
2023/09/11 03:03:47;;;;;;;;;;;20.20;99.90;;;;;;4988091;28;19949;-31
2023/09/11 03:06:13;;;;;;;;;;;20.20;99.90;;;;;;4974877;28;20403;-32
2023/09/11 03:08:40;;;;;;;;;;;20.20;99.90;;;;;;4975015;28;19994;-32
2023/09/11 03:11:07;;;;;;;;;;;20.20;99.90;;;;;;4971357;28;19956;-32
2023/09/11 03:13:35;;;;;;;;;;;20.10;99.90;;;;;;4993116;28;19945;-31
2023/09/11 03:16:09;;;;;;;;;;;20.10;99.90;;;;;;4974560;28;19947;-32
2023/09/11 03:18:35;;;;;;;;;;;20.10;99.90;;;;;;4987236;28;20314;-33
2023/09/11 03:21:03;;;;;;;;;;;20.10;99.90;;;;;;4989668;28;20421;-32
2023/09/11 03:23:30;;;;;;;;;;;20.10;99.90;;;;;;4971646;28;20044;-32
2023/09/11 03:25:56;;;;;;;;;;;20.00;99.90;;;;;;4975069;28;19946;-32
2023/09/11 03:28:23;;;;;;;;;;;20.00;99.90;;;;;;4992783;28;19976;-32
2023/09/11 03:30:51;;;;;;;;;;;20.00;99.90;;;;;;4991568;28;19976;-32
2023/09/11 03:33:18;;;;;;;;;;;20.00;99.90;;;;;;4990606;28;20350;-31
2023/09/11 03:35:46;;;;;;;;;;;20.00;99.90;;;;;;4987364;28;19943;-31
2023/09/11 03:38:12;;;;;;;;;;;20.00;99.90;;;;;;4969769;28;19951;-31
2023/09/11 03:40:39;;;;;;;;;;;20.00;99.90;;;;;;4972557;28;19945;-33
2023/09/11 03:43:06;;;;;;;;;;;20.00;99.90;;;;;;4993219;28;20418;-31
2023/09/11 03:45:32;;;;;;;;;;;19.90;99.90;;;;;;4975792;28;19942;-32
2023/09/11 03:48:00;;;;;;;;;;;19.90;99.90;;;;;;4992440;28;19969;-31
2023/09/11 03:50:27;;;;;;;;;;;19.90;99.90;;;;;;4974851;28;19949;-31
2023/09/11 03:52:54;;;;;;;;;;;19.90;99.90;;;;;;4975700;28;19955;-31
2023/09/11 03:55:21;;;;;;;;;;;19.80;99.90;;;;;;4974964;28;19962;-31
2023/09/11 03:57:48;;;;;;;;;;;19.90;99.90;;;;;;4992776;28;19996;-31
2023/09/11 04:00:15;;;;;;;;;;;19.80;99.90;;;;;;4975433;28;19945;-31
2023/09/11 04:02:41;;;;;;;;;;;19.80;99.90;;;;;;4974841;28;19942;-32
2023/09/11 04:05:09;;;;;;;;;;;19.80;99.90;;;;;;4991664;28;19948;-31
2023/09/11 04:07:36;;;;;;;;;;;19.80;99.90;;;;;;4992133;28;19997;-31
2023/09/11 04:10:03;;;;;;;;;;;19.80;99.90;;;;;;4992437;28;19950;-32
2023/09/11 04:12:30;;;;;;;;;;;19.80;99.90;;;;;;4992673;28;19962;-32
2023/09/11 04:14:57;;;;;;;;;;;19.80;99.90;;;;;;4992408;28;19962;-33
2023/09/11 04:17:23;;;;;;;;;;;19.80;99.90;;;;;;4992115;28;19990;-32
2023/09/11 04:19:51;;;;;;;;;;;19.80;99.90;;;;;;4991730;28;19953;-31
2023/09/11 04:22:19;;;;;;;;;;;19.80;99.90;;;;;;4986908;28;19942;-33
2023/09/11 04:24:45;;;;;;;;;;;19.70;99.90;;;;;;4991308;28;19946;-33
2023/09/11 04:27:12;;;;;;;;;;;19.70;99.90;;;;;;4991979;28;19942;-32
2023/09/11 04:29:39;;;;;;;;;;;19.70;99.90;;;;;;4974149;28;20417;-31
2023/09/11 04:32:06;;;;;;;;;;;19.70;99.90;;;;;;4992529;28;19955;-32
2023/09/11 04:34:33;;;;;;;;;;;19.70;99.90;;;;;;4991520;28;19950;-32
2023/09/11 04:36:59;;;;;;;;;;;19.60;99.90;;;;;;4975497;28;20236;-32
2023/09/11 04:39:28;;;;;;;;;;;19.60;99.90;;;;;;4991819;28;19950;-33
2023/09/11 04:41:54;;;;;;;;;;;19.60;99.90;;;;;;4995645;28;19992;-33
2023/09/11 04:44:21;;;;;;;;;;;19.60;99.90;;;;;;4994991;28;19942;-32
2023/09/11 04:46:47;;;;;;;;;;;19.60;99.90;;;;;;5000379;28;20036;-32
2023/09/11 04:49:14;;;;;;;;;;;19.60;99.90;;;;;;4996131;28;19969;-32
2023/09/11 04:51:41;;;;;;;;;;;19.60;99.90;;;;;;4978314;28;20016;-32
2023/09/11 04:54:08;;;;;;;;;;;19.60;99.90;;;;;;4978862;28;20424;-32
2023/09/11 04:56:36;;;;;;;;;;;19.60;99.90;;;;;;4995326;28;19973;-32
2023/09/11 04:59:03;;;;;;;;;;;19.50;99.90;;;;;;4977721;28;19942;-32
2023/09/11 05:01:29;;;;;;;;;;;19.50;99.90;;;;;;4993612;28;19946;-31
2023/09/11 05:03:56;;;;;;;;;;;19.50;99.90;;;;;;4992844;28;19948;-32
2023/09/11 05:06:23;;;;;;;;;;;19.50;99.90;;;;;;4975461;28;19947;-33
2023/09/11 05:08:51;;;;;;;;;;;19.50;99.90;;;;;;4992283;28;20693;-33
2023/09/11 05:11:17;;;;;;;;;;;19.50;99.90;;;;;;4990369;28;19956;-32
2023/09/11 05:13:46;;;;;;;;;;;19.50;99.90;;;;;;4974654;28;19949;-31
2023/09/11 05:16:13;;;;;;;;;;;19.50;99.90;;;;;;4994452;28;19954;-31
2023/09/11 05:18:39;;;;;;;;;;;19.50;99.90;;;;;;4993921;28;19949;-33
2023/09/11 05:21:06;;;;;;;;;;;19.60;99.90;;;;;;4991685;28;19950;-32
2023/09/11 05:23:33;;;;;;;;;;;19.50;99.90;;;;;;4992510;28;20400;-32
2023/09/11 05:25:59;;;;;;;;;;;19.60;99.90;;;;;;5005056;28;19952;-32
2023/09/11 05:28:26;;;;;;;;;;;19.60;99.90;;;;;;4984721;28;19953;-32
2023/09/11 05:30:54;;;;;;;;;;;19.60;99.90;;;;;;4991224;28;20373;-31
2023/09/11 05:33:21;;;;;;;;;;;19.60;99.90;;;;;;4990653;28;19951;-32
2023/09/11 05:35:47;;;;;;;;;;;19.60;99.90;;;;;;4991105;28;19939;-32
2023/09/11 05:38:14;;;;;;;;;;;19.60;99.90;;;;;;4993017;28;21372;-32
2023/09/11 05:40:41;;;;;;;;;;;19.60;99.90;;;;;;4974954;28;19945;-32
2023/09/11 05:43:07;;;;;;;;;;;19.70;99.90;;;;;;4992577;28;20385;-31
2023/09/11 05:45:34;;;;;;;;;;;19.70;99.90;;;;;;4986976;28;20305;-32
2023/09/11 05:48:02;;;;;;;;;;;19.70;99.90;;;;;;4974447;28;19982;-33
2023/09/11 05:50:29;;;;;;;;;;;19.70;99.90;;;;;;4968302;28;19961;-32
2023/09/11 05:52:55;;;;;;;;;;;19.80;99.90;;;;;;4975537;28;20338;-32
2023/09/11 05:55:22;;;;;;;;;;;19.80;99.90;;;;;;4975409;28;20349;-31
2023/09/11 05:57:49;;;;;;;;;;;19.90;99.90;;;;;;4972808;28;20022;-34
2023/09/11 06:00:15;;;;;;;;;;;19.90;99.90;;;;;;4991614;28;19940;-32
2023/09/11 06:02:45;;;;;;;;;;;20.00;99.90;;;;;;4976874;28;19939;-32
2023/09/11 06:05:13;;;;;;;;;;;20.00;99.90;;;;;;4992796;28;19952;-32
2023/09/11 06:07:39;;;;;;;;;;;20.00;99.90;;;;;;4993274;28;19946;-31
2023/09/11 06:10:06;;;;;;;;;;;20.10;99.90;;;;;;4973501;28;19943;-32
2023/09/11 06:12:33;;;;;;;;;;;20.20;99.90;;;;;;4993383;28;20431;-30
2023/09/11 06:15:00;;;;;;;;;;;20.20;99.90;;;;;;4980572;28;19943;-32
2023/09/11 06:17:26;;;;;;;;;;;20.30;99.90;;;;;;4984725;28;20404;-32
2023/09/11 06:19:53;;;;;;;;;;;20.40;99.90;;;;;;4991203;28;19973;-32
2023/09/11 06:22:21;;;;;;;;;;;20.50;99.90;;;;;;4971383;28;19943;-32
2023/09/11 06:24:48;;;;;;;;;;;20.60;99.90;;;;;;4968389;28;19944;-31
2023/09/11 06:27:15;;;;;;;;;;;20.60;99.90;;;;;;4989658;28;20459;-34
2023/09/11 06:29:42;;;;;;;;;;;20.80;99.90;;;;;;4989810;28;19996;-31
2023/09/11 06:32:08;;;;;;;;;;;20.80;99.90;;;;;;4956939;28;20009;-32
2023/09/11 06:34:35;;;;;;;;;;;20.90;99.90;;;;;;4974920;28;20400;-31
2023/09/11 06:37:02;;;;;;;;;;;21.00;99.90;;;;;;4985861;28;19950;-32
2023/09/11 06:39:30;;;;;;;;;;;21.10;99.90;;;;;;4974574;28;19957;-32
2023/09/11 06:41:57;;;;;;;;;;;21.10;99.90;;;;;;4994030;28;20348;-32
2023/09/11 06:44:23;;;;;;;;;;;21.20;99.90;;;;;;4995090;28;19942;-32
2023/09/11 06:46:50;;;;;;;;;;;21.30;99.90;;;;;;4989243;28;19965;-32
2023/09/11 06:49:17;;;;;;;;;;;21.40;99.90;;;;;;4973660;28;19959;-32
2023/09/11 06:51:43;;;;;;;;;;;21.40;99.90;;;;;;4992937;28;19981;-31
2023/09/11 06:54:12;;;;;;;;;;;21.50;99.90;;;;;;4979927;28;20787;-32
2023/09/11 06:56:42;;;;;;;;;;;21.60;99.90;;;;;;4975602;28;20459;-32
2023/09/11 06:59:08;;;;;;;;;;;21.70;99.90;;;;;;4990327;28;20399;-33
2023/09/11 07:01:38;;;;;;;;;;;21.80;99.90;;;;;;4989937;28;19945;-33
2023/09/11 07:04:05;;;;;;;;;;;21.90;99.90;;;;;;4990654;28;20044;-32
2023/09/11 07:06:32;;;;;;;;;;;22.00;99.90;;;;;;4990481;28;19943;-32
2023/09/11 07:08:59;;;;;;;;;;;22.10;99.90;;;;;;4968553;28;19996;-32
2023/09/11 07:11:25;;;;;;;;;;;22.10;99.90;;;;;;4991868;28;19941;-31
2023/09/11 07:13:54;;;;;;;;;;;22.30;99.90;;;;;;4974292;28;20301;-32
2023/09/11 07:16:21;;;;;;;;;;;22.40;99.90;;;;;;4975076;28;20379;-32
2023/09/11 07:18:48;;;;;;;;;;;22.50;99.90;;;;;;4991081;28;19952;-32
2023/09/11 07:21:14;;;;;;;;;;;22.50;99.90;;;;;;4974855;28;19946;-32
2023/09/11 07:23:41;;;;;;;;;;;22.60;99.90;;;;;;4992507;28;19989;-32
2023/09/11 07:26:08;;;;;;;;;;;22.70;99.90;;;;;;4975441;28;19943;-32
2023/09/11 07:28:46;;;;;;;;;;;22.80;99.90;;;;;;4993237;28;19991;-32
2023/09/11 07:31:14;;;;;;;;;;;23.00;99.90;;;;;;4992480;28;19944;-35
2023/09/11 07:33:41;;;;;;;;;;;23.10;99.90;;;;;;4974601;28;20433;-32
2023/09/11 07:36:07;;;;;;;;;;;23.20;99.90;;;;;;4992468;28;20307;-32
2023/09/11 07:38:34;;;;;;;;;;;23.30;99.90;;;;;;4993068;28;19950;-32
2023/09/11 07:41:01;;;;;;;;;;;23.40;99.90;;;;;;4993023;28;19987;-32
2023/09/11 07:43:28;;;;;;;;;;;23.50;99.90;;;;;;4995362;28;19952;-32
2023/09/11 07:45:54;;;;;;;;;;;23.50;99.90;;;;;;4993171;28;20315;-32
2023/09/11 07:48:22;;;;;;;;;;;23.70;99.90;;;;;;4992975;28;20418;-31
2023/09/11 07:50:49;;;;;;;;;;;23.80;99.90;;;;;;4975527;28;20041;-34
2023/09/11 07:53:16;;;;;;;;;;;23.90;99.90;;;;;;4973789;28;20326;-31
2023/09/11 07:55:42;;;;;;;;;;;24.00;99.90;;;;;;4991830;28;20464;-31
2023/09/11 07:58:10;;;;;;;;;;;24.10;99.90;;;;;;4992788;28;19957;-32
2023/09/11 08:00:36;;;;;;;;;;;24.10;99.90;;;;;;4975608;28;19995;-32
2023/09/11 08:03:03;;;;;;;;;;;24.30;99.90;;;;;;4976119;28;19942;-31
2023/09/11 08:05:31;;;;;;;;;;;24.40;99.90;;;;;;4975649;28;19941;-33
2023/09/11 08:08:01;;;;;;;;;;;24.50;99.90;;;;;;4992949;28;19938;-32
2023/09/11 08:10:28;;;;;;;;;;;24.60;99.90;;;;;;4991705;28;19949;-31
2023/09/11 08:12:55;;;;;;;;;;;24.60;99.90;;;;;;4975393;28;20387;-32
2023/09/11 08:15:21;;;;;;;;;;;24.70;99.90;;;;;;4991573;28;20372;-32
2023/09/11 08:17:48;;;;;;;;;;;24.80;99.90;;;;;;4991733;28;19981;-31
2023/09/11 08:20:15;;;;;;;;;;;25.00;99.90;;;;;;4975768;28;20380;-33
2023/09/11 08:22:43;;;;;;;;;;;25.10;99.90;;;;;;4996633;28;20354;-33
2023/09/11 08:25:10;;;;;;;;;;;25.30;99.90;;;;;;4978943;28;19945;-32
2023/09/11 08:27:37;;;;;;;;;;;25.50;99.90;;;;;;4995487;28;19949;-31
2023/09/11 08:30:04;;;;;;;;;;;25.60;99.90;;;;;;4995826;28;20375;-31
2023/09/11 08:32:33;;;;;;;;;;;25.80;99.90;;;;;;4994948;28;20020;-31
2023/09/11 08:35:00;;;;;;;;;;;25.90;99.90;;;;;;4995425;28;19942;-33
2023/09/11 08:37:26;;;;;;;;;;;26.00;99.90;;;;;;4996272;28;19944;-32
2023/09/11 08:39:54;;;;;;;;;;;26.20;99.90;;;;;;4996194;28;19971;-32
2023/09/11 08:42:21;;;;;;;;;;;26.30;99.90;;;;;;4985951;28;19940;-31
2023/09/11 08:44:49;;;;;;;;;;;26.40;99.90;;;;;;4996761;28;19942;-33
2023/09/11 08:47:16;;;;;;;;;;;26.50;99.90;;;;;;4996130;28;19946;-32
2023/09/11 08:49:43;;;;;;;;;;;26.60;99.90;;;;;;4996111;28;20012;-31
2023/09/11 08:52:11;;;;;;;;;;;26.80;99.90;;;;;;4978455;28;20473;-32
2023/09/11 08:54:38;;;;;;;;;;;26.80;99.90;;;;;;4995560;28;20443;-32
2023/09/11 08:57:07;;;;;;;;;;;26.90;99.90;;;;;;4978257;28;20440;-32
2023/09/11 08:59:33;;;;;;;;;;;27.00;99.90;;;;;;4995881;28;19940;-32
2023/09/11 09:02:00;;;;;;;;;;;27.10;99.90;;;;;;4977936;28;19944;-31
2023/09/11 09:04:27;;;;;;;;;;;27.30;99.90;;;;;;4994394;28;19948;-33
2023/09/11 09:06:53;;;;;;;;;;;27.30;99.90;;;;;;4995850;28;19943;-31
2023/09/11 09:09:20;;;;;;;;;;;27.40;99.90;;;;;;4995690;28;20021;-32
2023/09/11 09:11:48;;;;;;;;;;;27.50;99.90;;;;;;4978202;28;19944;-32
2023/09/11 09:14:17;;;;;;;;;;;27.60;99.90;;;;;;4995589;28;20306;-32
2023/09/11 09:16:44;;;;;;;;;;;27.60;99.90;;;;;;4976968;28;20330;-32
2023/09/11 09:19:11;;;;;;;;;;;27.80;99.90;;;;;;4995441;28;19930;-31
2023/09/11 09:21:37;;;;;;;;;;;27.90;99.90;;;;;;4994368;28;19947;-32
2023/09/11 09:24:12;;;;;;;;;;;28.00;99.90;;;;;;4994231;28;19939;-32
2023/09/11 09:26:48;;;;;;;;;;;28.10;99.90;;;;;;4995034;28;20456;-31
2023/09/11 09:29:16;;;;;;;;;;;28.10;99.90;;;;;;4995546;28;20317;-31
2023/09/11 09:31:44;;;;;;;;;;;28.20;99.90;;;;;;4992072;28;19989;-32
2023/09/11 09:34:11;;;;;;;;;;;28.30;99.90;;;;;;4977256;28;19960;-32
2023/09/11 09:36:37;;;;;;;;;;;28.30;98.90;;;;;;4995481;28;20293;-32
2023/09/11 09:39:04;;;;;;;;;;;28.30;99.00;;;;;;4977309;28;20290;-32
2023/09/11 09:41:31;;;;;;;;;;;28.30;99.90;;;;;;4994995;28;20361;-32
2023/09/11 09:43:59;;;;;;;;;;;28.50;99.90;;;;;;4997619;28;19943;-31
2023/09/11 09:46:26;;;;;;;;;;;28.60;99.30;;;;;;5014645;28;20309;-32
2023/09/11 09:48:54;;;;;;;;;;;28.70;99.00;;;;;;5014266;28;19936;-32
2023/09/11 09:51:21;;;;;;;;;;;28.70;98.80;;;;;;4996917;28;19990;-32
2023/09/11 09:53:48;;;;;;;;;;;28.70;97.70;;;;;;4996551;28;20387;-31
2023/09/11 09:56:15;;;;;;;;;;;28.80;98.80;;;;;;5004512;28;19996;-34
2023/09/11 09:58:42;;;;;;;;;;;28.80;98.60;;;;;;4994812;28;19994;-32
2023/09/11 10:01:09;;;;;;;;;;;28.90;98.40;;;;;;4977386;28;20004;-32
2023/09/11 10:03:39;;;;;;;;;;;29.00;98.40;;;;;;4994696;28;19996;-33
2023/09/11 10:06:08;;;;;;;;;;;29.00;98.90;;;;;;4977339;28;19941;-32
2023/09/11 10:08:34;;;;;;;;;;;29.10;99.10;;;;;;4994426;28;19938;-35
2023/09/11 10:11:01;;;;;;;;;;;29.20;98.40;;;;;;4977298;28;20011;-35
2023/09/11 10:13:30;;;;;;;;;;;29.30;98.70;;;;;;4994667;28;20033;-34
2023/09/11 10:15:57;;;;;;;;;;;29.40;98.90;;;;;;4992561;28;19994;-32
2023/09/11 10:18:24;;;;;;;;;;;29.50;97.90;;;;;;4976980;28;20021;-32
2023/09/11 10:20:50;;;;;;;;;;;29.60;98.10;;;;;;4977006;28;19965;-34
2023/09/11 10:23:18;;;;;;;;;;;29.70;98.40;;;;;;4994130;28;20386;-31
2023/09/11 10:25:45;;;;;;;;;;;29.80;98.50;;;;;;4994211;28;19941;-31
2023/09/11 10:28:14;;;;;;;;;;;29.90;98.20;;;;;;4994131;28;19977;-32
2023/09/11 10:30:43;;;;;;;;;;;29.90;97.80;;;;;;4994288;28;19988;-32
2023/09/11 10:33:10;;;;;;;;;;;29.90;98.10;;;;;;4993838;28;20416;-32
2023/09/11 10:35:39;;;;;;;;;;;30.00;97.80;;;;;;4993212;28;20384;-32
2023/09/11 10:38:06;;;;;;;;;;;30.10;97.80;;;;;;4993776;28;19945;-31
2023/09/11 10:40:34;;;;;;;;;;;30.10;97.80;;;;;;4993988;28;19953;-31
2023/09/11 10:43:01;;;;;;;;;;;30.20;97.50;;;;;;4993825;28;19963;-32
2023/09/11 10:45:28;;;;;;;;;;;30.20;97.40;;;;;;4974509;28;19967;-33
2023/09/11 10:47:55;;;;;;;;;;;30.30;98.00;;;;;;4993540;28;19964;-31
2023/09/11 10:50:23;;;;;;;;;;;30.30;97.70;;;;;;4976682;28;20458;-32
2023/09/11 10:52:52;;;;;;;;;;;30.30;97.10;;;;;;4976549;28;20424;-32
2023/09/11 10:55:19;;;;;;;;;;;30.30;96.80;;;;;;4975763;28;19941;-31
2023/09/11 10:57:47;;;;;;;;;;;30.40;97.10;;;;;;4976593;28;19946;-31
2023/09/11 11:00:15;;;;;;;;;;;30.40;96.90;;;;;;4993472;28;19955;-32
2023/09/11 11:02:41;;;;;;;;;;;30.40;97.00;;;;;;4992695;28;19933;-32
2023/09/11 11:05:10;;;;;;;;;;;30.40;96.90;;;;;;4976170;28;19926;-32
2023/09/11 11:07:37;;;;;;;;;;;30.50;97.20;;;;;;4993164;28;19947;-34
2023/09/11 11:10:04;;;;;;;;;;;30.60;96.50;;;;;;4993392;28;19988;-32
2023/09/11 11:12:31;;;;;;;;;;;30.70;96.50;;;;;;4993450;28;19940;-32
2023/09/11 11:15:12;;;;;;;;;;;30.70;96.50;;;;;;4993281;28;19966;-32
2023/09/11 11:17:41;;;;;;;;;;;30.80;96.20;;;;;;4992638;28;19963;-32
2023/09/11 11:20:08;;;;;;;;;;;30.80;96.40;;;;;;4992600;28;20308;-32
2023/09/11 11:22:35;;;;;;;;;;;30.90;96.50;;;;;;4993074;28;19972;-31
2023/09/11 11:25:05;;;;;;;;;;;31.00;96.40;;;;;;4986177;28;19993;-32
2023/09/11 11:27:32;;;;;;;;;;;31.00;96.00;;;;;;4974690;28;19955;-32
2023/09/11 11:29:58;;;;;;;;;;;31.00;96.40;;;;;;4991401;28;19926;-33
2023/09/11 11:32:25;;;;;;;;;;;31.10;96.40;;;;;;4975847;28;19941;-33
2023/09/11 11:34:54;;;;;;;;;;;31.20;96.10;;;;;;4993056;28;19956;-31
2023/09/11 11:37:21;;;;;;;;;;;31.30;96.60;;;;;;4991703;28;19936;-33
2023/09/11 11:39:48;;;;;;;;;;;31.40;95.50;;;;;;4991025;28;20424;-31
2023/09/11 11:42:14;;;;;;;;;;;31.50;95.50;;;;;;4990968;28;19995;-32
2023/09/11 11:44:41;;;;;;;;;;;31.50;95.50;;;;;;4992172;28;19949;-31
2023/09/11 11:47:08;;;;;;;;;;;31.60;94.70;;;;;;4992944;28;19941;-32
2023/09/11 11:49:35;;;;;;;;;;;31.60;94.90;;;;;;4993313;28;19964;-31
2023/09/11 11:52:03;;;;;;;;;;;31.70;95.00;;;;;;4992938;28;20392;-33
2023/09/11 11:54:30;;;;;;;;;;;31.70;94.60;;;;;;4992822;28;19926;-31
2023/09/11 11:56:57;;;;;;;;;;;31.70;95.00;;;;;;4976484;28;19986;-31
2023/09/11 11:59:24;;;;;;;;;;;31.80;95.20;;;;;;4995651;28;19951;-32
2023/09/11 12:01:50;;;;;;;;;;;31.90;94.90;;;;;;4994827;28;19941;-32
2023/09/11 12:04:18;;;;;;;;;;;31.90;93.50;;;;;;4979370;28;19968;-32
2023/09/11 12:06:44;;;;;;;;;;;32.00;93.10;;;;;;4973841;28;20008;-33
2023/09/11 12:09:12;;;;;;;;;;;32.10;93.30;;;;;;4982190;28;19938;-32
2023/09/11 12:11:39;;;;;;;;;;;32.10;92.40;;;;;;4996698;28;19941;-36
2023/09/11 12:14:08;;;;;;;;;;;32.10;91.80;;;;;;4979228;28;19958;-32
2023/09/11 12:16:35;;;;;;;;;;;32.10;92.50;;;;;;4979504;28;20464;-31
2023/09/11 12:19:02;;;;;;;;;;;32.20;93.00;;;;;;4979277;28;20400;-32
2023/09/11 12:21:30;;;;;;;;;;;32.20;91.60;;;;;;4996524;28;19947;-31
2023/09/11 12:23:57;;;;;;;;;;;32.20;91.60;;;;;;4996687;28;20011;-32
2023/09/11 12:26:25;;;;;;;;;;;32.20;91.70;;;;;;4992921;28;20672;-32
2023/09/11 12:28:52;;;;;;;;;;;32.20;91.10;;;;;;4967065;28;20466;-31
2023/09/11 12:31:19;;;;;;;;;;;32.20;91.30;;;;;;4969231;28;19925;-32
2023/09/11 12:33:47;;;;;;;;;;;32.30;90.50;;;;;;4995550;28;19992;-32
2023/09/11 12:36:14;;;;;;;;;;;32.20;91.10;;;;;;5008402;28;20473;-32
2023/09/11 12:38:41;;;;;;;;;;;32.30;91.40;;;;;;4994131;28;19949;-32
2023/09/11 12:41:08;;;;;;;;;;;32.30;91.60;;;;;;4995283;28;19987;-31
2023/09/11 12:43:36;;;;;;;;;;;32.40;91.10;;;;;;4995988;28;19926;-32
2023/09/11 12:46:03;;;;;;;;;;;32.40;91.00;;;;;;4995157;28;19926;-32
2023/09/11 12:48:30;;;;;;;;;;;32.40;90.50;;;;;;4977111;28;19930;-32
2023/09/11 12:50:57;;;;;;;;;;;32.50;91.20;;;;;;4978769;28;19933;-31
2023/09/11 12:53:24;;;;;;;;;;;32.50;90.90;;;;;;4978729;28;20392;-33
2023/09/11 12:55:50;;;;;;;;;;;32.50;91.50;;;;;;4995406;28;20314;-32
2023/09/11 12:58:17;;;;;;;;;;;32.50;91.20;;;;;;4994925;28;19938;-32
2023/09/11 13:00:48;;;;;;;;;;;32.60;90.80;;;;;;4978188;28;19933;-31
2023/09/11 13:03:15;;;;;;;;;;;32.60;90.70;;;;;;4976867;28;19981;-32
2023/09/11 13:05:43;;;;;;;;;;;32.60;91.10;;;;;;4958800;28;19952;-32
2023/09/11 13:08:10;;;;;;;;;;;32.70;91.10;;;;;;4960066;28;20332;-32
2023/09/11 13:10:36;;;;;;;;;;;32.70;90.60;;;;;;4974871;28;19942;-32
2023/09/11 13:13:05;;;;;;;;;;;32.70;90.60;;;;;;4975191;28;20009;-32
2023/09/11 13:15:32;;;;;;;;;;;32.70;91.30;;;;;;4990597;28;19930;-32
2023/09/11 13:18:00;;;;;;;;;;;32.70;90.10;;;;;;4976248;28;19936;-32
2023/09/11 13:20:26;;;;;;;;;;;32.60;87.50;;;;;;4995033;28;19934;-31
2023/09/11 13:22:53;;;;;;;;;;;32.60;90.50;;;;;;4993471;28;19936;-32
2023/09/11 13:25:20;;;;;;;;;;;32.60;90.60;;;;;;4994786;28;19964;-31
2023/09/11 13:27:46;;;;;;;;;;;32.60;90.00;;;;;;4995173;28;19946;-32
2023/09/11 13:30:13;;;;;;;;;;;32.60;90.10;;;;;;4977864;28;19942;-34
2023/09/11 13:32:40;;;;;;;;;;;32.60;88.20;;;;;;4993679;28;19943;-33
2023/09/11 13:35:09;;;;;;;;;;;32.60;90.10;;;;;;4999455;28;20480;-33
2023/09/11 13:37:36;;;;;;;;;;;32.60;89.00;;;;;;4991698;28;20036;-31
2023/09/11 13:40:02;;;;;;;;;;;32.50;89.50;;;;;;4989568;28;19947;-32
2023/09/11 13:42:29;;;;;;;;;;;32.50;90.00;;;;;;4977757;28;19942;-32
2023/09/11 13:44:56;;;;;;;;;;;32.50;90.80;;;;;;4994795;28;20442;-32
2023/09/11 13:47:23;;;;;;;;;;;32.60;90.20;;;;;;4976420;28;20006;-32
2023/09/11 13:49:50;;;;;;;;;;;32.70;90.60;;;;;;4991860;28;19940;-32
2023/09/11 13:52:18;;;;;;;;;;;32.70;90.00;;;;;;4993604;28;20016;-32
2023/09/11 13:54:46;;;;;;;;;;;32.80;90.20;;;;;;4994539;28;19979;-32
2023/09/11 13:57:12;;;;;;;;;;;32.80;90.20;;;;;;4993751;28;19942;-32
2023/09/11 13:59:39;;;;;;;;;;;32.80;90.40;;;;;;4976383;28;19994;-33
2023/09/11 14:02:06;;;;;;;;;;;32.80;90.30;;;;;;4994848;28;20315;-32
2023/09/11 14:04:33;;;;;;;;;;;32.80;89.00;;;;;;4969289;28;19956;-33
2023/09/11 14:06:59;;;;;;;;;;;32.80;90.00;;;;;;4989389;28;20329;-32
2023/09/11 14:09:27;;;;;;;;;;;32.80;89.90;;;;;;4986714;28;19950;-33
2023/09/11 14:11:54;;;;;;;;;;;32.80;88.90;;;;;;4992227;28;19939;-34
2023/09/11 14:14:21;;;;;;;;;;;32.80;89.80;;;;;;4975877;28;19966;-33
2023/09/11 14:16:48;;;;;;;;;;;32.70;89.50;;;;;;4993512;28;19994;-32